Monday, February 18, 2019, 10:19 AM GMT
Back to Local

CYOW, Ottawa Int'L. Ont.

Location: , , Canada Lat: 45.317
Local Time: 10:19 AM GMT (10:19 GMT) Lon: -75.667
Time Zone: GMT Elev: 380 ft

Show me the last for .
Show Decoded

2019-02-18 10:00 METAR CYOW 181000Z 03009KT 15SM BKN070 OVC110 M12/M17 A2999 RMK AC6AC2 SLP165 =
2019-02-18 09:00 METAR CYOW 180900Z 02011KT 15SM OVC070 M12/M17 A2998 RMK AC8 SLP163 =
2019-02-18 08:00 METAR CYOW 180800Z 04008KT 15SM OVC090 M12/M17 A2999 RMK AC8 SLP165 =
2019-02-18 07:00 METAR CYOW 180700Z 04009KT 15SM BKN120 M13/M17 A3000 RMK AC7 SLP169 =
2019-02-18 06:00 METAR CYOW 180600Z 05006KT 15SM BKN130 M13/M18 A3001 RMK AC7 SLP173 =
2019-02-18 05:00 METAR CYOW 180500Z 04009KT 14SM BKN110 M13/M18 A3002 RMK AC7 SLP178 =
2019-02-18 04:00 METAR CYOW 180400Z 04007KT 15SM BKN140 M13/M18 A3004 RMK AC7 SLP184 =
2019-02-18 03:00 METAR CYOW 180300Z 06005KT 15SM BKN140 BKN220 M13/M18 A3006 RMK AC5CI1 SLP189 =
2019-02-18 02:00 METAR CYOW 180200Z 04007KT 15SM SCT130 BKN220 M13/M18 A3006 RMK AC4CI1 SLP190 =
2019-02-18 01:00 METAR CYOW 180100Z 05005KT 15SM SCT140 BKN220 M12/M18 A3007 RMK AC4CI2 SLP193 =
2019-02-18 00:00 METAR CYOW 180000Z 07004KT 15SM BKN150 BKN220 M11/M18 A3007 RMK AC5CI2 SLP196 =
2019-02-17 23:00 METAR CYOW 172300Z 07003KT 15SM SCT150 BKN220 M11/M18 A3009 RMK AC3CI2 SLP200 =
2019-02-17 22:00 METAR CYOW 172200Z 04006KT 15SM SCT150 BKN220 M09/M17 A3010 RMK AC3CI2 SLP205 =
2019-02-17 21:00 METAR CYOW 172100Z 26003KT 15SM FEW170 SCT250 M09/M17 A3013 RMK AC2CI2 SLP213 =
2019-02-17 20:00 METAR CYOW 172000Z VRB02KT 15SM FEW180 BKN240 M09/M17 A3014 RMK AC1CI7 AC TR
                 SLP217 =
2019-02-17 19:00 METAR CYOW 171900Z 13003KT 15SM BKN240 M10/M17 A3016 RMK CI7 SLP224 =
2019-02-17 18:00 METAR CYOW 171800Z 02005KT 350V070 15SM BKN240 M10/M17 A3016 RMK CI7 SLP226 =
2019-02-17 17:00 METAR CYOW 171700Z VRB02KT 15SM SCT240 M11/M18 A3019 RMK CI4 SLP235 =
2019-02-17 16:00 METAR CYOW 171600Z VRB02KT 15SM FEW240 M12/M18 A3023 RMK CI1 SLP247 =
2019-02-17 15:00 METAR CYOW 171500Z 00000KT 15SM FEW240 M13/M18 A3022 RMK CI1 CI TR SLP245 =
2019-02-17 14:00 METAR CYOW 171400Z 31005KT 15SM FEW240 M15/M18 A3023 RMK CI1 CI TR SLP248 =
2019-02-17 13:00 METAR CYOW 171300Z 28003KT 15SM FEW240 M19/M20 A3022 RMK CI1 CI TR SLP245 =
2019-02-17 12:00 METAR CYOW 171200Z 28004KT 15SM FEW240 M18/M20 A3021 RMK CI1 CI TR FROIN SLP242
                 =
2019-02-17 11:00 METAR CYOW 171100Z 29006KT 270V340 15SM SKC M17/M19 A3020 RMK FROIN SLP237 =

Support USWX by starting your Amazon purchase here.